sensor_id;sensor_type;location;lat;lon;timestamp;pressure;altitude;pressure_sealevel;temperature;humidity
72950;BME280;64868;45.710;9.590;2023-05-18T00:00:55;98970.06;;;14.70;73.96
72950;BME280;64868;45.710;9.590;2023-05-18T00:03:28;98969.03;;;14.71;74.44
72950;BME280;64868;45.710;9.590;2023-05-18T00:05:58;98960.69;;;14.82;72.82
72950;BME280;64868;45.710;9.590;2023-05-18T00:08:34;98958.50;;;14.76;72.79
72950;BME280;64868;45.710;9.590;2023-05-18T00:11:07;98957.91;;;14.73;73.53
72950;BME280;64868;45.710;9.590;2023-05-18T00:13:37;98973.22;;;14.75;73.08
72950;BME280;64868;45.710;9.590;2023-05-18T00:16:08;98960.66;;;14.73;72.99
72950;BME280;64868;45.710;9.590;2023-05-18T00:18:38;98963.66;;;14.70;73.28
72950;BME280;64868;45.710;9.590;2023-05-18T00:21:11;98961.94;;;14.69;72.77
72950;BME280;64868;45.710;9.590;2023-05-18T00:23:43;98948.09;;;14.70;72.86
72950;BME280;64868;45.710;9.590;2023-05-18T00:26:16;98964.41;;;14.72;73.12
72950;BME280;64868;45.710;9.590;2023-05-18T00:28:48;98955.31;;;14.71;72.76
72950;BME280;64868;45.710;9.590;2023-05-18T00:31:16;98971.03;;;14.69;73.39
72950;BME280;64868;45.710;9.590;2023-05-18T00:33:48;98966.28;;;14.71;72.79
72950;BME280;64868;45.710;9.590;2023-05-18T00:36:21;98982.59;;;14.73;72.81
72950;BME280;64868;45.710;9.590;2023-05-18T00:38:49;98977.09;;;14.63;73.21
72950;BME280;64868;45.710;9.590;2023-05-18T00:41:21;98970.16;;;14.59;72.69
72950;BME280;64868;45.710;9.590;2023-05-18T00:43:54;98982.34;;;14.76;72.67
72950;BME280;64868;45.710;9.590;2023-05-18T00:46:26;98977.25;;;14.71;72.99
72950;BME280;64868;45.710;9.590;2023-05-18T00:48:57;98981.78;;;14.82;72.89
72950;BME280;64868;45.710;9.590;2023-05-18T00:51:31;98976.13;;;14.74;72.18
72950;BME280;64868;45.710;9.590;2023-05-18T00:54:04;98981.47;;;14.75;72.32
72950;BME280;64868;45.710;9.590;2023-05-18T00:56:38;98977.84;;;14.75;72.84
72950;BME280;64868;45.710;9.590;2023-05-18T00:59:11;98966.88;;;14.75;73.08
72950;BME280;64868;45.710;9.590;2023-05-18T01:01:39;98975.13;;;14.75;73.77
72950;BME280;64868;45.710;9.590;2023-05-18T01:04:15;98980.59;;;14.75;73.20
72950;BME280;64868;45.710;9.590;2023-05-18T01:06:43;98968.44;;;14.68;73.67
72950;BME280;64868;45.710;9.590;2023-05-18T01:09:16;98975.38;;;14.72;73.98
72950;BME280;64868;45.710;9.590;2023-05-18T01:12:09;98989.53;;;14.77;73.32
72950;BME280;64868;45.710;9.590;2023-05-18T01:14:53;98989.25;;;14.70;73.34
72950;BME280;64868;45.710;9.590;2023-05-18T01:18:09;99000.34;;;14.69;74.02
72950;BME280;64868;45.710;9.590;2023-05-18T01:20:50;98995.72;;;14.69;74.18
72950;BME280;64868;45.710;9.590;2023-05-18T01:26:13;98998.09;;;14.74;74.70
72950;BME280;64868;45.710;9.590;2023-05-18T01:28:47;98990.13;;;14.71;74.05
72950;BME280;64868;45.710;9.590;2023-05-18T01:31:16;99005.47;;;14.83;73.81
72950;BME280;64868;45.710;9.590;2023-05-18T01:33:47;99002.72;;;14.83;72.83
72950;BME280;64868;45.710;9.590;2023-05-18T01:36:19;99009.50;;;14.89;72.59
72950;BME280;64868;45.710;9.590;2023-05-18T01:38:52;99019.34;;;14.91;72.80
72950;BME280;64868;45.710;9.590;2023-05-18T01:41:25;99015.00;;;14.89;72.45
72950;BME280;64868;45.710;9.590;2023-05-18T01:49:28;99019.88;;;14.75;75.47
72950;BME280;64868;45.710;9.590;2023-05-18T01:52:02;99021.28;;;14.70;77.15
72950;BME280;64868;45.710;9.590;2023-05-18T01:54:37;99016.31;;;14.54;78.82
72950;BME280;64868;45.710;9.590;2023-05-18T01:57:12;99017.25;;;14.43;79.84
72950;BME280;64868;45.710;9.590;2023-05-18T01:59:42;99029.03;;;14.34;80.67
72950;BME280;64868;45.710;9.590;2023-05-18T02:02:13;99020.34;;;14.29;80.56
72950;BME280;64868;45.710;9.590;2023-05-18T02:04:46;99017.44;;;14.21;81.20
72950;BME280;64868;45.710;9.590;2023-05-18T02:07:16;99024.91;;;14.19;81.55
72950;BME280;64868;45.710;9.590;2023-05-18T02:09:46;99031.13;;;14.21;81.80
72950;BME280;64868;45.710;9.590;2023-05-18T02:12:19;99020.56;;;13.95;83.38
72950;BME280;64868;45.710;9.590;2023-05-18T02:14:51;99026.72;;;13.87;84.83
72950;BME280;64868;45.710;9.590;2023-05-18T02:17:24;99021.25;;;13.87;84.53
72950;BME280;64868;45.710;9.590;2023-05-18T02:19:57;99023.50;;;13.82;84.79
72950;BME280;64868;45.710;9.590;2023-05-18T02:22:27;99021.41;;;13.75;86.77
72950;BME280;64868;45.710;9.590;2023-05-18T02:24:59;99019.81;;;13.72;86.44
72950;BME280;64868;45.710;9.590;2023-05-18T02:27:32;99008.25;;;13.69;86.34
72950;BME280;64868;45.710;9.590;2023-05-18T02:30:03;99016.94;;;13.74;86.38
72950;BME280;64868;45.710;9.590;2023-05-18T02:32:35;99017.34;;;13.69;86.85
72950;BME280;64868;45.710;9.590;2023-05-18T02:35:07;99018.06;;;13.71;86.77
72950;BME280;64868;45.710;9.590;2023-05-18T02:37:39;99008.72;;;13.74;86.42
72950;BME280;64868;45.710;9.590;2023-05-18T02:40:15;99013.13;;;13.65;87.13
72950;BME280;64868;45.710;9.590;2023-05-18T02:42:48;99008.97;;;13.71;86.38
72950;BME280;64868;45.710;9.590;2023-05-18T02:45:20;99011.34;;;13.75;86.58
72950;BME280;64868;45.710;9.590;2023-05-18T02:47:53;99006.38;;;13.69;87.43
72950;BME280;64868;45.710;9.590;2023-05-18T02:50:21;99022.78;;;13.80;87.48
72950;BME280;64868;45.710;9.590;2023-05-18T02:52:48;99017.44;;;13.79;86.98
72950;BME280;64868;45.710;9.590;2023-05-18T02:55:19;99013.06;;;13.76;86.16
72950;BME280;64868;45.710;9.590;2023-05-18T02:57:49;99021.66;;;13.83;86.30
72950;BME280;64868;45.710;9.590;2023-05-18T03:00:25;99019.78;;;13.83;85.70
72950;BME280;64868;45.710;9.590;2023-05-18T03:02:58;99010.78;;;13.81;85.53
72950;BME280;64868;45.710;9.590;2023-05-18T03:05:31;99010.78;;;13.81;86.49
72950;BME280;64868;45.710;9.590;2023-05-18T03:08:01;99019.41;;;13.77;86.51
72950;BME280;64868;45.710;9.590;2023-05-18T03:10:34;99019.41;;;13.77;85.52
72950;BME280;64868;45.710;9.590;2023-05-18T03:13:06;99026.38;;;13.81;85.74
72950;BME280;64868;45.710;9.590;2023-05-18T03:15:39;99031.44;;;13.85;85.23
72950;BME280;64868;45.710;9.590;2023-05-18T03:18:12;99033.00;;;13.99;83.89
72950;BME280;64868;45.710;9.590;2023-05-18T03:20:42;99026.97;;;13.84;85.41
72950;BME280;64868;45.710;9.590;2023-05-18T03:23:14;99043.44;;;13.84;84.93
72950;BME280;64868;45.710;9.590;2023-05-18T03:25:47;99034.13;;;13.76;86.16
72950;BME280;64868;45.710;9.590;2023-05-18T03:28:20;99033.28;;;13.75;87.12
72950;BME280;64868;45.710;9.590;2023-05-18T03:30:52;99041.09;;;13.80;87.91
72950;BME280;64868;45.710;9.590;2023-05-18T03:33:22;99041.59;;;13.74;87.31
72950;BME280;64868;45.710;9.590;2023-05-18T03:35:52;99039.63;;;13.76;87.51
72950;BME280;64868;45.710;9.590;2023-05-18T03:38:25;99034.19;;;13.65;87.51
72950;BME280;64868;45.710;9.590;2023-05-18T03:40:55;99046.72;;;13.67;87.17
72950;BME280;64868;45.710;9.590;2023-05-18T03:43:28;99046.41;;;13.60;87.22
72950;BME280;64868;45.710;9.590;2023-05-18T03:46:01;99051.47;;;13.65;87.60
72950;BME280;64868;45.710;9.590;2023-05-18T03:48:34;99047.13;;;13.62;86.36
72950;BME280;64868;45.710;9.590;2023-05-18T03:51:06;99044.66;;;13.59;85.68
72950;BME280;64868;45.710;9.590;2023-05-18T03:53:39;99046.31;;;13.51;85.32
72950;BME280;64868;45.710;9.590;2023-05-18T03:56:12;99067.09;;;13.53;85.16
72950;BME280;64868;45.710;9.590;2023-05-18T03:58:44;99055.38;;;13.51;85.89
72950;BME280;64868;45.710;9.590;2023-05-18T04:01:17;99062.22;;;13.57;85.77
72950;BME280;64868;45.710;9.590;2023-05-18T04:03:47;99065.84;;;13.57;84.94
72950;BME280;64868;45.710;9.590;2023-05-18T04:06:19;99063.34;;;13.54;84.19
72950;BME280;64868;45.710;9.590;2023-05-18T04:08:52;99072.19;;;13.58;84.97
72950;BME280;64868;45.710;9.590;2023-05-18T04:11:25;99073.19;;;13.57;83.37
72950;BME280;64868;45.710;9.590;2023-05-18T04:13:57;99075.06;;;13.56;83.89
72950;BME280;64868;45.710;9.590;2023-05-18T04:16:30;99069.22;;;13.50;84.14
72950;BME280;64868;45.710;9.590;2023-05-18T04:19:02;99070.88;;;13.41;85.70
72950;BME280;64868;45.710;9.590;2023-05-18T04:21:35;99077.94;;;13.44;85.70
72950;BME280;64868;45.710;9.590;2023-05-18T04:24:08;99082.41;;;13.45;84.74
72950;BME280;64868;45.710;9.590;2023-05-18T04:26:38;99083.81;;;13.39;84.83
72950;BME280;64868;45.710;9.590;2023-05-18T04:29:08;99074.47;;;13.42;83.87
72950;BME280;64868;45.710;9.590;2023-05-18T04:31:41;99092.50;;;13.44;84.60
72950;BME280;64868;45.710;9.590;2023-05-18T04:34:11;99097.63;;;13.49;84.91
72950;BME280;64868;45.710;9.590;2023-05-18T04:36:42;99089.41;;;13.49;84.84
72950;BME280;64868;45.710;9.590;2023-05-18T04:39:14;99089.03;;;13.42;84.00
72950;BME280;64868;45.710;9.590;2023-05-18T04:41:44;99106.19;;;13.44;85.71
72950;BME280;64868;45.710;9.590;2023-05-18T04:44:17;99109.31;;;13.51;86.00
72950;BME280;64868;45.710;9.590;2023-05-18T04:46:49;99097.34;;;13.52;84.09
72950;BME280;64868;45.710;9.590;2023-05-18T04:49:21;99113.16;;;13.48;85.32
72950;BME280;64868;45.710;9.590;2023-05-18T04:51:53;99114.94;;;13.38;85.37
72950;BME280;64868;45.710;9.590;2023-05-18T04:54:27;99108.31;;;13.41;86.30
72950;BME280;64868;45.710;9.590;2023-05-18T04:57:00;99106.13;;;13.34;86.91
72950;BME280;64868;45.710;9.590;2023-05-18T04:59:30;99113.69;;;13.42;85.63
72950;BME280;64868;45.710;9.590;2023-05-18T05:02:03;99114.06;;;13.37;85.92
72950;BME280;64868;45.710;9.590;2023-05-18T05:04:35;99110.19;;;13.40;87.34
72950;BME280;64868;45.710;9.590;2023-05-18T05:07:05;99116.19;;;13.34;86.13
72950;BME280;64868;45.710;9.590;2023-05-18T05:09:38;99109.56;;;13.36;86.48
72950;BME280;64868;45.710;9.590;2023-05-18T05:12:10;99120.81;;;13.33;87.48
72950;BME280;64868;45.710;9.590;2023-05-18T05:14:38;99119.41;;;13.39;87.42
72950;BME280;64868;45.710;9.590;2023-05-18T05:17:08;99123.38;;;13.46;86.04
72950;BME280;64868;45.710;9.590;2023-05-18T05:19:41;99119.19;;;13.31;84.26
72950;BME280;64868;45.710;9.590;2023-05-18T05:22:12;99125.97;;;13.48;85.15
72950;BME280;64868;45.710;9.590;2023-05-18T05:24:42;99124.88;;;13.50;84.64
72950;BME280;64868;45.710;9.590;2023-05-18T05:27:15;99110.28;;;13.61;85.05
72950;BME280;64868;45.710;9.590;2023-05-18T05:29:47;99103.63;;;13.75;81.53
72950;BME280;64868;45.710;9.590;2023-05-18T05:32:18;99105.28;;;13.66;82.32
72950;BME280;64868;45.710;9.590;2023-05-18T05:34:48;99113.84;;;13.73;82.10
72950;BME280;64868;45.710;9.590;2023-05-18T05:37:20;99109.50;;;13.70;82.93
72950;BME280;64868;45.710;9.590;2023-05-18T05:39:52;99115.78;;;13.82;82.59
72950;BME280;64868;45.710;9.590;2023-05-18T05:42:20;99114.94;;;13.81;80.76
72950;BME280;64868;45.710;9.590;2023-05-18T05:44:50;99119.06;;;13.76;80.98
72950;BME280;64868;45.710;9.590;2023-05-18T05:47:23;99107.91;;;13.68;82.09
72950;BME280;64868;45.710;9.590;2023-05-18T05:49:56;99119.81;;;13.78;82.20
72950;BME280;64868;45.710;9.590;2023-05-18T05:52:23;99112.34;;;13.80;82.04
72950;BME280;64868;45.710;9.590;2023-05-18T05:54:57;99117.78;;;13.91;80.97
72950;BME280;64868;45.710;9.590;2023-05-18T05:57:30;99117.13;;;13.99;81.24
72950;BME280;64868;45.710;9.590;2023-05-18T06:00:00;99127.16;;;14.09;80.97
72950;BME280;64868;45.710;9.590;2023-05-18T06:02:33;99132.38;;;14.12;79.61
72950;BME280;64868;45.710;9.590;2023-05-18T06:05:03;99128.25;;;14.18;79.43
72950;BME280;64868;45.710;9.590;2023-05-18T06:07:34;99125.50;;;14.18;80.09
72950;BME280;64868;45.710;9.590;2023-05-18T06:10:04;99130.25;;;14.37;78.64
72950;BME280;64868;45.710;9.590;2023-05-18T06:12:35;99130.38;;;14.35;79.10
72950;BME280;64868;45.710;9.590;2023-05-18T06:15:08;99130.44;;;14.45;78.69
72950;BME280;64868;45.710;9.590;2023-05-18T06:17:39;99132.72;;;14.51;78.38
72950;BME280;64868;45.710;9.590;2023-05-18T06:20:09;99132.03;;;14.59;77.21
72950;BME280;64868;45.710;9.590;2023-05-18T06:22:42;99128.31;;;14.70;77.00
72950;BME280;64868;45.710;9.590;2023-05-18T06:25:14;99138.22;;;14.82;75.98
72950;BME280;64868;45.710;9.590;2023-05-18T06:27:44;99126.69;;;14.88;75.47
72950;BME280;64868;45.710;9.590;2023-05-18T06:30:13;99143.06;;;14.99;76.32
72950;BME280;64868;45.710;9.590;2023-05-18T06:32:45;99138.84;;;15.16;75.87
72950;BME280;64868;45.710;9.590;2023-05-18T06:35:18;99124.25;;;15.16;74.77
72950;BME280;64868;45.710;9.590;2023-05-18T06:37:51;99135.13;;;15.27;74.54
72950;BME280;64868;45.710;9.590;2023-05-18T06:40:23;99136.28;;;15.34;72.84
72950;BME280;64868;45.710;9.590;2023-05-18T06:42:56;99131.97;;;15.41;72.46
72950;BME280;64868;45.710;9.590;2023-05-18T06:45:28;99148.72;;;15.28;72.06
72950;BME280;64868;45.710;9.590;2023-05-18T06:48:01;99151.19;;;15.41;73.07
72950;BME280;64868;45.710;9.590;2023-05-18T06:50:34;99141.56;;;15.56;70.74
72950;BME280;64868;45.710;9.590;2023-05-18T06:53:04;99144.50;;;15.65;70.27
72950;BME280;64868;45.710;9.590;2023-05-18T06:55:34;99139.28;;;15.62;70.55
72950;BME280;64868;45.710;9.590;2023-05-18T06:58:04;99151.59;;;15.67;69.85
72950;BME280;64868;45.710;9.590;2023-05-18T07:00:34;99148.59;;;15.90;69.20
72950;BME280;64868;45.710;9.590;2023-05-18T07:03:07;99141.53;;;15.97;69.16
72950;BME280;64868;45.710;9.590;2023-05-18T07:05:37;99144.00;;;16.29;68.82
72950;BME280;64868;45.710;9.590;2023-05-18T07:08:03;99143.69;;;16.32;66.68
72950;BME280;64868;45.710;9.590;2023-05-18T07:10:32;99145.31;;;16.44;65.61
72950;BME280;64868;45.710;9.590;2023-05-18T07:13:04;99145.09;;;16.85;66.20
72950;BME280;64868;45.710;9.590;2023-05-18T07:15:37;99142.28;;;17.04;64.37
72950;BME280;64868;45.710;9.590;2023-05-18T07:18:09;99142.34;;;17.59;63.20
72950;BME280;64868;45.710;9.590;2023-05-18T07:20:40;99140.84;;;17.65;60.71
72950;BME280;64868;45.710;9.590;2023-05-18T07:23:12;99141.97;;;18.53;59.80
72950;BME280;64868;45.710;9.590;2023-05-18T07:25:45;99138.75;;;20.78;52.96
72950;BME280;64868;45.710;9.590;2023-05-18T07:28:17;99140.34;;;22.69;44.97
72950;BME280;64868;45.710;9.590;2023-05-18T07:30:50;99150.09;;;23.25;44.00
72950;BME280;64868;45.710;9.590;2023-05-18T07:33:20;99149.00;;;24.15;42.25
72950;BME280;64868;45.710;9.590;2023-05-18T07:35:53;99148.63;;;24.18;42.40
72950;BME280;64868;45.710;9.590;2023-05-18T07:38:23;99156.75;;;23.39;42.60
72950;BME280;64868;45.710;9.590;2023-05-18T07:40:56;99153.91;;;22.49;44.21
72950;BME280;64868;45.710;9.590;2023-05-18T07:43:28;99146.31;;;21.80;45.82
72950;BME280;64868;45.710;9.590;2023-05-18T07:45:58;99149.19;;;21.56;44.18
72950;BME280;64868;45.710;9.590;2023-05-18T07:48:31;99144.56;;;21.24;45.10
72950;BME280;64868;45.710;9.590;2023-05-18T07:51:04;99147.53;;;21.06;45.25
72950;BME280;64868;45.710;9.590;2023-05-18T07:53:34;99148.56;;;21.37;43.57
72950;BME280;64868;45.710;9.590;2023-05-18T07:56:04;99151.59;;;21.98;43.41
72950;BME280;64868;45.710;9.590;2023-05-18T07:58:37;99146.44;;;21.48;40.61
72950;BME280;64868;45.710;9.590;2023-05-18T08:01:07;99140.75;;;21.80;41.64
72950;BME280;64868;45.710;9.590;2023-05-18T08:03:37;99139.50;;;22.22;41.10
72950;BME280;64868;45.710;9.590;2023-05-18T08:06:10;99146.28;;;22.89;39.05
72950;BME280;64868;45.710;9.590;2023-05-18T08:08:40;99142.16;;;22.85;38.56
72950;BME280;64868;45.710;9.590;2023-05-18T08:11:10;99149.03;;;24.00;36.38
72950;BME280;64868;45.710;9.590;2023-05-18T08:13:43;99147.94;;;23.80;37.26
72950;BME280;64868;45.710;9.590;2023-05-18T08:16:14;99150.91;;;23.78;35.99
72950;BME280;64868;45.710;9.590;2023-05-18T08:18:42;99149.63;;;23.37;37.24
72950;BME280;64868;45.710;9.590;2023-05-18T08:21:14;99153.47;;;23.50;38.09
72950;BME280;64868;45.710;9.590;2023-05-18T08:23:47;99157.72;;;23.61;36.93
72950;BME280;64868;45.710;9.590;2023-05-18T08:26:20;99155.56;;;23.48;37.01
72950;BME280;64868;45.710;9.590;2023-05-18T08:28:53;99150.97;;;23.41;35.85
72950;BME280;64868;45.710;9.590;2023-05-18T08:31:25;99150.72;;;22.98;38.05
72950;BME280;64868;45.710;9.590;2023-05-18T08:33:58;99154.19;;;23.00;37.28
72950;BME280;64868;45.710;9.590;2023-05-18T08:36:30;99137.28;;;22.18;38.85
72950;BME280;64868;45.710;9.590;2023-05-18T08:39:03;99152.41;;;23.07;37.43
72950;BME280;64868;45.710;9.590;2023-05-18T08:41:37;99151.56;;;23.51;35.37
72950;BME280;64868;45.710;9.590;2023-05-18T08:44:12;99150.78;;;23.27;34.73
72950;BME280;64868;45.710;9.590;2023-05-18T08:46:45;99145.00;;;21.99;36.74
72950;BME280;64868;45.710;9.590;2023-05-18T08:49:20;99150.13;;;21.16;40.35
72950;BME280;64868;45.710;9.590;2023-05-18T08:51:55;99138.53;;;21.76;38.70
72950;BME280;64868;45.710;9.590;2023-05-18T08:54:29;99154.97;;;21.38;37.31
72950;BME280;64868;45.710;9.590;2023-05-18T08:56:59;99144.03;;;20.06;39.73
72950;BME280;64868;45.710;9.590;2023-05-18T08:59:30;99147.22;;;19.77;40.71
72950;BME280;64868;45.710;9.590;2023-05-18T09:02:03;99147.78;;;19.88;39.89
72950;BME280;64868;45.710;9.590;2023-05-18T09:04:33;99144.44;;;20.27;38.73
72950;BME280;64868;45.710;9.590;2023-05-18T09:07:04;99145.44;;;20.10;39.15
72950;BME280;64868;45.710;9.590;2023-05-18T09:09:37;99148.38;;;21.39;37.77
72950;BME280;64868;45.710;9.590;2023-05-18T09:12:12;99142.63;;;21.49;35.44
72950;BME280;64868;45.710;9.590;2023-05-18T09:14:46;99148.97;;;20.94;37.67
72950;BME280;64868;45.710;9.590;2023-05-18T09:17:19;99148.78;;;20.79;39.93
72950;BME280;64868;45.710;9.590;2023-05-18T09:19:50;99156.94;;;20.97;38.41
72950;BME280;64868;45.710;9.590;2023-05-18T09:22:22;99144.78;;;21.14;39.04
72950;BME280;64868;45.710;9.590;2023-05-18T09:24:52;99153.50;;;20.54;39.60
72950;BME280;64868;45.710;9.590;2023-05-18T09:27:22;99157.91;;;21.45;37.31
72950;BME280;64868;45.710;9.590;2023-05-18T09:32:19;99156.84;;;22.24;36.52
72950;BME280;64868;45.710;9.590;2023-05-18T09:34:51;99164.31;;;23.30;36.30
72950;BME280;64868;45.710;9.590;2023-05-18T09:37:23;99162.34;;;23.84;33.85
72950;BME280;64868;45.710;9.590;2023-05-18T09:40:09;99158.59;;;22.71;35.09
72950;BME280;64868;45.710;9.590;2023-05-18T09:42:43;99159.47;;;23.10;34.75
72950;BME280;64868;45.710;9.590;2023-05-18T09:45:25;99154.13;;;22.08;35.61
72950;BME280;64868;45.710;9.590;2023-05-18T09:47:53;99162.72;;;23.81;33.90
72950;BME280;64868;45.710;9.590;2023-05-18T09:50:22;99160.38;;;24.71;32.39
72950;BME280;64868;45.710;9.590;2023-05-18T09:52:56;99168.84;;;23.61;33.13
72950;BME280;64868;45.710;9.590;2023-05-18T09:55:26;99168.78;;;24.20;32.21
72950;BME280;64868;45.710;9.590;2023-05-18T09:57:58;99164.63;;;23.50;34.28
72950;BME280;64868;45.710;9.590;2023-05-18T10:00:32;99166.66;;;24.22;32.31
72950;BME280;64868;45.710;9.590;2023-05-18T10:03:10;99166.66;;;25.02;32.49
72950;BME280;64868;45.710;9.590;2023-05-18T10:05:47;99168.44;;;25.09;31.84
72950;BME280;64868;45.710;9.590;2023-05-18T10:08:20;99168.16;;;24.03;34.18
72950;BME280;64868;45.710;9.590;2023-05-18T10:10:53;99174.34;;;23.69;34.85
72950;BME280;64868;45.710;9.590;2023-05-18T10:13:27;99174.44;;;24.27;33.90
72950;BME280;64868;45.710;9.590;2023-05-18T10:15:58;99167.53;;;23.87;33.23
72950;BME280;64868;45.710;9.590;2023-05-18T10:18:36;99168.09;;;22.77;35.32
72950;BME280;64868;45.710;9.590;2023-05-18T10:21:09;99158.50;;;23.02;36.01
72950;BME280;64868;45.710;9.590;2023-05-18T10:23:42;99159.03;;;24.10;33.76
72950;BME280;64868;45.710;9.590;2023-05-18T10:26:20;99150.13;;;23.85;32.50
72950;BME280;64868;45.710;9.590;2023-05-18T10:28:53;99153.28;;;23.22;34.89
72950;BME280;64868;45.710;9.590;2023-05-18T10:31:26;99149.94;;;23.42;34.92
72950;BME280;64868;45.710;9.590;2023-05-18T10:33:57;99146.25;;;24.37;31.72
72950;BME280;64868;45.710;9.590;2023-05-18T10:36:31;99139.25;;;24.62;32.90
72950;BME280;64868;45.710;9.590;2023-05-18T10:39:02;99144.44;;;24.65;32.92
72950;BME280;64868;45.710;9.590;2023-05-18T10:41:37;99144.88;;;24.69;32.57
72950;BME280;64868;45.710;9.590;2023-05-18T10:44:06;99142.38;;;25.86;31.23
72950;BME280;64868;45.710;9.590;2023-05-18T10:46:39;99141.59;;;26.06;30.27
72950;BME280;64868;45.710;9.590;2023-05-18T10:49:10;99140.50;;;26.61;30.27
72950;BME280;64868;45.710;9.590;2023-05-18T10:51:43;99149.63;;;26.29;30.15
72950;BME280;64868;45.710;9.590;2023-05-18T10:54:12;99144.75;;;24.77;31.95
72950;BME280;64868;45.710;9.590;2023-05-18T10:56:45;99142.34;;;23.50;35.06
72950;BME280;64868;45.710;9.590;2023-05-18T10:59:15;99147.16;;;23.57;35.58
72950;BME280;64868;45.710;9.590;2023-05-18T11:01:47;99137.75;;;23.43;36.47
72950;BME280;64868;45.710;9.590;2023-05-18T11:04:24;99146.47;;;23.40;35.42
72950;BME280;64868;45.710;9.590;2023-05-18T11:07:02;99137.41;;;22.70;37.37
72950;BME280;64868;45.710;9.590;2023-05-18T11:09:34;99125.38;;;23.60;35.33
72950;BME280;64868;45.710;9.590;2023-05-18T11:12:13;99138.53;;;24.75;33.83
72950;BME280;64868;45.710;9.590;2023-05-18T11:14:53;99135.91;;;25.86;31.99
72950;BME280;64868;45.710;9.590;2023-05-18T11:17:26;99135.69;;;25.46;33.22
72950;BME280;64868;45.710;9.590;2023-05-18T11:23:07;99135.31;;;23.10;35.06
72950;BME280;64868;45.710;9.590;2023-05-18T11:25:39;99137.81;;;23.05;34.96
72950;BME280;64868;45.710;9.590;2023-05-18T11:28:18;99131.78;;;23.46;35.90
72950;BME280;64868;45.710;9.590;2023-05-18T11:30:49;99124.69;;;23.58;33.89
72950;BME280;64868;45.710;9.590;2023-05-18T11:33:26;99129.00;;;23.16;35.99
72950;BME280;64868;45.710;9.590;2023-05-18T11:36:12;99129.13;;;23.38;36.28
72950;BME280;64868;45.710;9.590;2023-05-18T11:38:54;99127.88;;;22.65;35.85
72950;BME280;64868;45.710;9.590;2023-05-18T11:41:37;99121.22;;;23.56;36.21
72950;BME280;64868;45.710;9.590;2023-05-18T11:44:17;99114.19;;;24.41;34.01
72950;BME280;64868;45.710;9.590;2023-05-18T11:49:26;99109.59;;;25.04;32.09
72950;BME280;64868;45.710;9.590;2023-05-18T11:52:15;99119.41;;;25.56;32.69
72950;BME280;64868;45.710;9.590;2023-05-18T11:54:55;99113.81;;;26.52;30.24
72950;BME280;64868;45.710;9.590;2023-05-18T11:57:38;99111.28;;;24.34;32.85
72950;BME280;64868;45.710;9.590;2023-05-18T12:00:14;99115.44;;;22.98;34.58
72950;BME280;64868;45.710;9.590;2023-05-18T12:02:48;99100.13;;;23.62;34.43
72950;BME280;64868;45.710;9.590;2023-05-18T12:05:21;99100.59;;;23.80;34.74
72950;BME280;64868;45.710;9.590;2023-05-18T12:07:57;99104.44;;;23.05;36.45
72950;BME280;64868;45.710;9.590;2023-05-18T12:10:27;99090.66;;;23.41;35.83
72950;BME280;64868;45.710;9.590;2023-05-18T12:13:00;99104.63;;;23.63;35.64
72950;BME280;64868;45.710;9.590;2023-05-18T12:15:33;99100.44;;;22.85;36.27
72950;BME280;64868;45.710;9.590;2023-05-18T12:18:03;99098.00;;;22.67;36.36
72950;BME280;64868;45.710;9.590;2023-05-18T12:20:40;99099.34;;;22.94;36.09
72950;BME280;64868;45.710;9.590;2023-05-18T12:23:10;99099.66;;;22.91;36.73
72950;BME280;64868;45.710;9.590;2023-05-18T12:25:43;99094.53;;;22.65;37.54
72950;BME280;64868;45.710;9.590;2023-05-18T12:28:13;99085.75;;;22.07;39.31
72950;BME280;64868;45.710;9.590;2023-05-18T12:30:45;99094.38;;;22.43;39.24
72950;BME280;64868;45.710;9.590;2023-05-18T12:33:18;99092.41;;;22.52;39.02
72950;BME280;64868;45.710;9.590;2023-05-18T12:35:47;99090.44;;;22.75;37.88
72950;BME280;64868;45.710;9.590;2023-05-18T12:38:17;99080.25;;;23.65;36.35
72950;BME280;64868;45.710;9.590;2023-05-18T12:40:50;99075.75;;;24.00;35.22
72950;BME280;64868;45.710;9.590;2023-05-18T12:43:22;99074.41;;;24.54;34.40
72950;BME280;64868;45.710;9.590;2023-05-18T12:45:55;99072.94;;;24.15;33.27
72950;BME280;64868;45.710;9.590;2023-05-18T12:48:33;99074.19;;;24.34;34.03
72950;BME280;64868;45.710;9.590;2023-05-18T12:51:04;99073.09;;;24.49;34.47
72950;BME280;64868;45.710;9.590;2023-05-18T12:53:46;99071.84;;;24.16;34.99
72950;BME280;64868;45.710;9.590;2023-05-18T12:56:19;99075.78;;;24.64;34.96
72950;BME280;64868;45.710;9.590;2023-05-18T12:59:16;99077.56;;;24.44;33.85
72950;BME280;64868;45.710;9.590;2023-05-18T13:01:48;99073.13;;;24.78;33.79
72950;BME280;64868;45.710;9.590;2023-05-18T13:04:16;99072.63;;;24.67;33.66
72950;BME280;64868;45.710;9.590;2023-05-18T13:06:49;99064.78;;;24.78;32.69
72950;BME280;64868;45.710;9.590;2023-05-18T13:09:19;99061.31;;;24.75;33.03
72950;BME280;64868;45.710;9.590;2023-05-18T13:11:50;99066.94;;;25.45;32.39
72950;BME280;64868;45.710;9.590;2023-05-18T13:14:19;99066.75;;;24.19;34.26
72950;BME280;64868;45.710;9.590;2023-05-18T13:16:52;99061.84;;;24.64;34.36
72950;BME280;64868;45.710;9.590;2023-05-18T13:19:27;99052.63;;;24.92;33.34
72950;BME280;64868;45.710;9.590;2023-05-18T13:21:57;99050.69;;;24.92;34.08
72950;BME280;64868;45.710;9.590;2023-05-18T13:24:30;99054.66;;;24.76;32.83
72950;BME280;64868;45.710;9.590;2023-05-18T13:27:00;99064.50;;;25.00;32.49
72950;BME280;64868;45.710;9.590;2023-05-18T13:29:33;99053.16;;;24.10;34.76
72950;BME280;64868;45.710;9.590;2023-05-18T13:32:03;99062.13;;;23.39;36.38
72950;BME280;64868;45.710;9.590;2023-05-18T13:34:33;99059.94;;;22.67;37.14
72950;BME280;64868;45.710;9.590;2023-05-18T13:37:05;99059.56;;;22.32;37.26
72950;BME280;64868;45.710;9.590;2023-05-18T13:39:33;99055.38;;;22.14;38.10
72950;BME280;64868;45.710;9.590;2023-05-18T13:41:58;99056.53;;;22.19;38.15
72950;BME280;64868;45.710;9.590;2023-05-18T13:44:26;99050.56;;;21.76;38.54